sensor_id;sensor_type;location;lat;lon;timestamp;temperature;humidity
17200;DHT22;8716;52.268;20.968;2023-01-24T00:01:23;3.50;99.90
17200;DHT22;8716;52.268;20.968;2023-01-24T00:03:52;3.50;99.90
17200;DHT22;8716;52.268;20.968;2023-01-24T00:06:20;3.60;99.90
17200;DHT22;8716;52.268;20.968;2023-01-24T00:08:48;3.60;99.90
17200;DHT22;8716;52.268;20.968;2023-01-24T00:11:18;3.40;99.90
17200;DHT22;8716;52.268;20.968;2023-01-24T00:13:46;3.50;99.90
17200;DHT22;8716;52.268;20.968;2023-01-24T00:16:17;3.60;99.90
17200;DHT22;8716;52.268;20.968;2023-01-24T00:18:46;3.60;99.90
17200;DHT22;8716;52.268;20.968;2023-01-24T00:21:17;3.50;99.90
17200;DHT22;8716;52.268;20.968;2023-01-24T00:23:48;3.50;99.90
17200;DHT22;8716;52.268;20.968;2023-01-24T00:26:19;3.50;99.90
17200;DHT22;8716;52.268;20.968;2023-01-24T00:28:47;3.50;99.90
17200;DHT22;8716;52.268;20.968;2023-01-24T00:31:16;3.50;99.90
17200;DHT22;8716;52.268;20.968;2023-01-24T00:33:45;3.50;99.90
17200;DHT22;8716;52.268;20.968;2023-01-24T00:36:13;3.50;99.90
17200;DHT22;8716;52.268;20.968;2023-01-24T00:38:42;3.40;99.90
17200;DHT22;8716;52.268;20.968;2023-01-24T00:41:10;3.50;99.90
17200;DHT22;8716;52.268;20.968;2023-01-24T00:43:40;3.50;99.90
17200;DHT22;8716;52.268;20.968;2023-01-24T00:46:08;3.50;99.90
17200;DHT22;8716;52.268;20.968;2023-01-24T00:48:37;3.50;99.90
17200;DHT22;8716;52.268;20.968;2023-01-24T00:51:05;3.50;99.90
17200;DHT22;8716;52.268;20.968;2023-01-24T00:53:33;3.50;99.90
17200;DHT22;8716;52.268;20.968;2023-01-24T00:56:02;3.40;99.90
17200;DHT22;8716;52.268;20.968;2023-01-24T00:58:31;3.40;99.90
17200;DHT22;8716;52.268;20.968;2023-01-24T01:01:02;3.50;99.90
17200;DHT22;8716;52.268;20.968;2023-01-24T01:03:31;3.50;99.90
17200;DHT22;8716;52.268;20.968;2023-01-24T01:06:00;3.50;99.90
17200;DHT22;8716;52.268;20.968;2023-01-24T01:08:28;3.50;99.90
17200;DHT22;8716;52.268;20.968;2023-01-24T01:10:57;3.50;99.90
17200;DHT22;8716;52.268;20.968;2023-01-24T01:13:26;3.50;99.90
17200;DHT22;8716;52.268;20.968;2023-01-24T01:16:02;3.40;99.90
17200;DHT22;8716;52.268;20.968;2023-01-24T01:18:30;3.50;99.90
17200;DHT22;8716;52.268;20.968;2023-01-24T01:20:59;3.50;99.90
17200;DHT22;8716;52.268;20.968;2023-01-24T01:23:27;3.50;99.90
17200;DHT22;8716;52.268;20.968;2023-01-24T01:25:59;3.50;99.90
17200;DHT22;8716;52.268;20.968;2023-01-24T01:28:28;3.50;99.90
17200;DHT22;8716;52.268;20.968;2023-01-24T01:30:56;3.60;99.90
17200;DHT22;8716;52.268;20.968;2023-01-24T01:33:26;3.50;99.90
17200;DHT22;8716;52.268;20.968;2023-01-24T01:35:54;3.60;99.90
17200;DHT22;8716;52.268;20.968;2023-01-24T01:38:22;3.60;99.90
17200;DHT22;8716;52.268;20.968;2023-01-24T01:40:51;3.50;99.90
17200;DHT22;8716;52.268;20.968;2023-01-24T01:43:21;3.60;99.90
17200;DHT22;8716;52.268;20.968;2023-01-24T01:45:52;3.60;99.90
17200;DHT22;8716;52.268;20.968;2023-01-24T01:48:27;3.60;99.90
17200;DHT22;8716;52.268;20.968;2023-01-24T01:51:02;3.60;99.90
17200;DHT22;8716;52.268;20.968;2023-01-24T01:53:41;3.60;99.90
17200;DHT22;8716;52.268;20.968;2023-01-24T01:56:19;3.50;99.90
17200;DHT22;8716;52.268;20.968;2023-01-24T01:58:48;3.50;99.90
17200;DHT22;8716;52.268;20.968;2023-01-24T02:01:17;3.50;99.90
17200;DHT22;8716;52.268;20.968;2023-01-24T02:03:57;3.50;99.90
17200;DHT22;8716;52.268;20.968;2023-01-24T02:06:46;3.50;99.90
17200;DHT22;8716;52.268;20.968;2023-01-24T02:09:20;3.50;99.90
17200;DHT22;8716;52.268;20.968;2023-01-24T02:11:50;3.50;99.90
17200;DHT22;8716;52.268;20.968;2023-01-24T02:14:20;3.50;99.90
17200;DHT22;8716;52.268;20.968;2023-01-24T02:17:09;3.50;99.90
17200;DHT22;8716;52.268;20.968;2023-01-24T02:19:50;3.50;99.90
17200;DHT22;8716;52.268;20.968;2023-01-24T02:22:27;3.50;99.90
17200;DHT22;8716;52.268;20.968;2023-01-24T02:25:03;3.50;99.90
17200;DHT22;8716;52.268;20.968;2023-01-24T02:27:35;3.50;99.90
17200;DHT22;8716;52.268;20.968;2023-01-24T02:30:04;3.50;99.90
17200;DHT22;8716;52.268;20.968;2023-01-24T02:32:33;3.50;99.90
17200;DHT22;8716;52.268;20.968;2023-01-24T02:35:02;3.40;99.90
17200;DHT22;8716;52.268;20.968;2023-01-24T02:37:32;3.40;99.90
17200;DHT22;8716;52.268;20.968;2023-01-24T02:40:06;3.40;99.90
17200;DHT22;8716;52.268;20.968;2023-01-24T02:42:38;3.40;99.90
17200;DHT22;8716;52.268;20.968;2023-01-24T02:45:10;3.40;99.90
17200;DHT22;8716;52.268;20.968;2023-01-24T02:47:45;3.40;99.90
17200;DHT22;8716;52.268;20.968;2023-01-24T02:50:14;3.40;99.90
17200;DHT22;8716;52.268;20.968;2023-01-24T02:52:42;3.50;99.90
17200;DHT22;8716;52.268;20.968;2023-01-24T02:55:30;3.50;99.90
17200;DHT22;8716;52.268;20.968;2023-01-24T02:58:00;3.50;99.90
17200;DHT22;8716;52.268;20.968;2023-01-24T03:00:39;3.50;99.90
17200;DHT22;8716;52.268;20.968;2023-01-24T03:03:10;3.50;99.90
17200;DHT22;8716;52.268;20.968;2023-01-24T03:05:39;3.40;99.90
17200;DHT22;8716;52.268;20.968;2023-01-24T03:08:32;3.50;99.90
17200;DHT22;8716;52.268;20.968;2023-01-24T03:11:03;3.50;99.90
17200;DHT22;8716;52.268;20.968;2023-01-24T03:13:38;3.50;99.90
17200;DHT22;8716;52.268;20.968;2023-01-24T03:16:24;3.40;99.90
17200;DHT22;8716;52.268;20.968;2023-01-24T03:19:12;3.50;99.90
17200;DHT22;8716;52.268;20.968;2023-01-24T03:21:59;3.50;99.90
17200;DHT22;8716;52.268;20.968;2023-01-24T03:24:45;3.50;99.90
17200;DHT22;8716;52.268;20.968;2023-01-24T03:27:30;3.50;99.90
17200;DHT22;8716;52.268;20.968;2023-01-24T03:30:20;3.50;99.90
17200;DHT22;8716;52.268;20.968;2023-01-24T03:33:07;3.50;99.90
17200;DHT22;8716;52.268;20.968;2023-01-24T03:35:53;3.50;99.90
17200;DHT22;8716;52.268;20.968;2023-01-24T03:38:28;3.40;99.90
17200;DHT22;8716;52.268;20.968;2023-01-24T03:41:15;3.50;99.90
17200;DHT22;8716;52.268;20.968;2023-01-24T03:43:43;3.50;99.90
17200;DHT22;8716;52.268;20.968;2023-01-24T03:46:14;3.50;99.90
17200;DHT22;8716;52.268;20.968;2023-01-24T03:48:47;3.40;99.90
17200;DHT22;8716;52.268;20.968;2023-01-24T03:51:17;3.40;99.90
17200;DHT22;8716;52.268;20.968;2023-01-24T03:54:05;3.50;99.90
17200;DHT22;8716;52.268;20.968;2023-01-24T03:56:42;3.60;99.90
17200;DHT22;8716;52.268;20.968;2023-01-24T03:59:11;3.50;99.90
17200;DHT22;8716;52.268;20.968;2023-01-24T04:01:41;3.50;99.90
17200;DHT22;8716;52.268;20.968;2023-01-24T04:04:31;3.50;99.90
17200;DHT22;8716;52.268;20.968;2023-01-24T04:07:21;3.50;99.90
17200;DHT22;8716;52.268;20.968;2023-01-24T04:10:06;3.50;99.90
17200;DHT22;8716;52.268;20.968;2023-01-24T04:12:41;3.50;99.90
17200;DHT22;8716;52.268;20.968;2023-01-24T04:15:14;3.40;99.90
17200;DHT22;8716;52.268;20.968;2023-01-24T04:17:46;3.50;99.90
17200;DHT22;8716;52.268;20.968;2023-01-24T04:20:16;3.60;99.90
17200;DHT22;8716;52.268;20.968;2023-01-24T04:22:44;3.50;99.90
17200;DHT22;8716;52.268;20.968;2023-01-24T04:25:12;3.50;99.90
17200;DHT22;8716;52.268;20.968;2023-01-24T04:27:44;3.50;99.90
17200;DHT22;8716;52.268;20.968;2023-01-24T04:30:15;3.60;99.90
17200;DHT22;8716;52.268;20.968;2023-01-24T04:32:49;3.60;99.90
17200;DHT22;8716;52.268;20.968;2023-01-24T04:35:25;3.60;99.90
17200;DHT22;8716;52.268;20.968;2023-01-24T04:37:57;3.60;99.90
17200;DHT22;8716;52.268;20.968;2023-01-24T04:40:57;3.60;99.90
17200;DHT22;8716;52.268;20.968;2023-01-24T04:43:27;3.60;99.90
17200;DHT22;8716;52.268;20.968;2023-01-24T04:45:57;3.50;99.90
17200;DHT22;8716;52.268;20.968;2023-01-24T04:48:39;3.50;99.90
17200;DHT22;8716;52.268;20.968;2023-01-24T04:51:08;3.40;99.90
17200;DHT22;8716;52.268;20.968;2023-01-24T04:53:38;3.40;99.90
17200;DHT22;8716;52.268;20.968;2023-01-24T04:56:07;3.50;99.90
17200;DHT22;8716;52.268;20.968;2023-01-24T04:58:37;3.50;99.90
17200;DHT22;8716;52.268;20.968;2023-01-24T05:01:05;3.50;99.90
17200;DHT22;8716;52.268;20.968;2023-01-24T05:03:42;3.50;99.90
17200;DHT22;8716;52.268;20.968;2023-01-24T05:06:11;3.50;99.90
17200;DHT22;8716;52.268;20.968;2023-01-24T05:08:39;3.50;99.90
17200;DHT22;8716;52.268;20.968;2023-01-24T05:11:08;3.50;99.90
17200;DHT22;8716;52.268;20.968;2023-01-24T05:13:43;3.50;99.90
17200;DHT22;8716;52.268;20.968;2023-01-24T05:16:15;3.50;99.90
17200;DHT22;8716;52.268;20.968;2023-01-24T05:18:47;3.50;99.90
17200;DHT22;8716;52.268;20.968;2023-01-24T05:21:17;3.50;99.90
17200;DHT22;8716;52.268;20.968;2023-01-24T05:23:48;3.50;99.90
17200;DHT22;8716;52.268;20.968;2023-01-24T05:26:20;3.50;99.90
17200;DHT22;8716;52.268;20.968;2023-01-24T05:28:52;3.50;99.90
17200;DHT22;8716;52.268;20.968;2023-01-24T05:31:23;3.50;99.90
17200;DHT22;8716;52.268;20.968;2023-01-24T05:33:53;3.40;99.90
17200;DHT22;8716;52.268;20.968;2023-01-24T05:36:23;3.40;99.90
17200;DHT22;8716;52.268;20.968;2023-01-24T05:38:52;3.50;99.90
17200;DHT22;8716;52.268;20.968;2023-01-24T05:41:20;3.50;99.90
17200;DHT22;8716;52.268;20.968;2023-01-24T05:43:51;3.50;99.90
17200;DHT22;8716;52.268;20.968;2023-01-24T05:46:24;3.50;99.90
17200;DHT22;8716;52.268;20.968;2023-01-24T05:49:01;3.50;99.90
17200;DHT22;8716;52.268;20.968;2023-01-24T05:51:29;3.50;99.90
17200;DHT22;8716;52.268;20.968;2023-01-24T05:53:58;3.50;99.90
17200;DHT22;8716;52.268;20.968;2023-01-24T05:57:01;3.50;99.90
17200;DHT22;8716;52.268;20.968;2023-01-24T05:59:45;3.40;99.90
17200;DHT22;8716;52.268;20.968;2023-01-24T06:02:13;3.50;99.90
17200;DHT22;8716;52.268;20.968;2023-01-24T06:04:43;3.50;99.90
17200;DHT22;8716;52.268;20.968;2023-01-24T06:07:11;3.50;99.90
17200;DHT22;8716;52.268;20.968;2023-01-24T06:09:41;3.60;99.90
17200;DHT22;8716;52.268;20.968;2023-01-24T06:12:09;3.60;99.90
17200;DHT22;8716;52.268;20.968;2023-01-24T06:14:37;3.60;99.90
17200;DHT22;8716;52.268;20.968;2023-01-24T06:17:05;3.50;99.90
17200;DHT22;8716;52.268;20.968;2023-01-24T06:19:34;3.50;99.90
17200;DHT22;8716;52.268;20.968;2023-01-24T06:22:15;3.50;99.90
17200;DHT22;8716;52.268;20.968;2023-01-24T06:24:49;3.50;99.90
17200;DHT22;8716;52.268;20.968;2023-01-24T06:27:26;3.60;99.90
17200;DHT22;8716;52.268;20.968;2023-01-24T06:29:54;3.50;99.90
17200;DHT22;8716;52.268;20.968;2023-01-24T06:32:34;3.50;99.90
17200;DHT22;8716;52.268;20.968;2023-01-24T06:35:11;3.50;99.90
17200;DHT22;8716;52.268;20.968;2023-01-24T06:37:46;3.50;99.90
17200;DHT22;8716;52.268;20.968;2023-01-24T06:40:16;3.60;99.90
17200;DHT22;8716;52.268;20.968;2023-01-24T06:42:45;3.60;99.90
17200;DHT22;8716;52.268;20.968;2023-01-24T06:45:14;3.60;99.90
17200;DHT22;8716;52.268;20.968;2023-01-24T06:47:44;3.60;99.90
17200;DHT22;8716;52.268;20.968;2023-01-24T06:50:14;3.60;99.90
17200;DHT22;8716;52.268;20.968;2023-01-24T06:52:48;3.60;99.90
17200;DHT22;8716;52.268;20.968;2023-01-24T06:55:16;3.60;99.90
17200;DHT22;8716;52.268;20.968;2023-01-24T06:57:44;3.60;99.90
17200;DHT22;8716;52.268;20.968;2023-01-24T07:00:15;3.60;99.90
17200;DHT22;8716;52.268;20.968;2023-01-24T07:02:43;3.70;99.90
17200;DHT22;8716;52.268;20.968;2023-01-24T07:05:11;3.70;99.90
17200;DHT22;8716;52.268;20.968;2023-01-24T07:07:40;3.70;99.90
17200;DHT22;8716;52.268;20.968;2023-01-24T07:10:10;3.70;99.90
17200;DHT22;8716;52.268;20.968;2023-01-24T07:12:41;3.70;99.90
17200;DHT22;8716;52.268;20.968;2023-01-24T07:15:10;3.70;99.90
17200;DHT22;8716;52.268;20.968;2023-01-24T07:17:39;3.80;99.90
17200;DHT22;8716;52.268;20.968;2023-01-24T07:20:09;3.70;99.90
17200;DHT22;8716;52.268;20.968;2023-01-24T07:22:39;3.70;99.90
17200;DHT22;8716;52.268;20.968;2023-01-24T07:25:12;3.70;99.90
17200;DHT22;8716;52.268;20.968;2023-01-24T07:27:43;3.70;99.90
17200;DHT22;8716;52.268;20.968;2023-01-24T07:30:12;3.70;99.90
17200;DHT22;8716;52.268;20.968;2023-01-24T07:32:40;3.70;99.90
17200;DHT22;8716;52.268;20.968;2023-01-24T07:35:09;3.80;99.90
17200;DHT22;8716;52.268;20.968;2023-01-24T07:37:38;3.80;99.90
17200;DHT22;8716;52.268;20.968;2023-01-24T07:40:07;3.80;99.90
17200;DHT22;8716;52.268;20.968;2023-01-24T07:42:37;3.90;99.90
17200;DHT22;8716;52.268;20.968;2023-01-24T07:45:06;3.80;99.90
17200;DHT22;8716;52.268;20.968;2023-01-24T07:47:34;3.80;99.90
17200;DHT22;8716;52.268;20.968;2023-01-24T07:50:03;3.80;99.90
17200;DHT22;8716;52.268;20.968;2023-01-24T07:52:32;3.90;99.90
17200;DHT22;8716;52.268;20.968;2023-01-24T07:55:02;3.90;99.90
17200;DHT22;8716;52.268;20.968;2023-01-24T07:57:31;3.90;99.90
17200;DHT22;8716;52.268;20.968;2023-01-24T08:00:01;3.90;99.90
17200;DHT22;8716;52.268;20.968;2023-01-24T08:02:37;4.00;99.90
17200;DHT22;8716;52.268;20.968;2023-01-24T08:05:06;4.00;99.90
17200;DHT22;8716;52.268;20.968;2023-01-24T08:07:34;4.00;99.90
17200;DHT22;8716;52.268;20.968;2023-01-24T08:10:03;4.00;99.90
17200;DHT22;8716;52.268;20.968;2023-01-24T08:12:32;4.10;99.90
17200;DHT22;8716;52.268;20.968;2023-01-24T08:15:01;4.10;99.90
17200;DHT22;8716;52.268;20.968;2023-01-24T08:17:29;4.10;99.90
17200;DHT22;8716;52.268;20.968;2023-01-24T08:19:58;4.10;99.90
17200;DHT22;8716;52.268;20.968;2023-01-24T08:22:26;4.10;99.90
17200;DHT22;8716;52.268;20.968;2023-01-24T08:24:54;4.20;99.90
17200;DHT22;8716;52.268;20.968;2023-01-24T08:27:22;4.20;99.90
17200;DHT22;8716;52.268;20.968;2023-01-24T08:29:51;4.20;99.90
17200;DHT22;8716;52.268;20.968;2023-01-24T08:32:20;4.30;99.90
17200;DHT22;8716;52.268;20.968;2023-01-24T08:34:49;4.30;99.90
17200;DHT22;8716;52.268;20.968;2023-01-24T08:37:17;4.40;99.90
17200;DHT22;8716;52.268;20.968;2023-01-24T08:39:45;4.40;99.90
17200;DHT22;8716;52.268;20.968;2023-01-24T08:42:13;4.40;99.90
17200;DHT22;8716;52.268;20.968;2023-01-24T08:44:41;4.40;99.90
17200;DHT22;8716;52.268;20.968;2023-01-24T08:47:10;4.40;99.90
17200;DHT22;8716;52.268;20.968;2023-01-24T08:49:39;4.40;99.90
17200;DHT22;8716;52.268;20.968;2023-01-24T08:52:08;4.60;99.90
17200;DHT22;8716;52.268;20.968;2023-01-24T08:54:36;4.60;99.90
17200;DHT22;8716;52.268;20.968;2023-01-24T08:57:05;4.60;99.90
17200;DHT22;8716;52.268;20.968;2023-01-24T08:59:34;4.60;99.90
17200;DHT22;8716;52.268;20.968;2023-01-24T09:02:03;4.60;99.90
17200;DHT22;8716;52.268;20.968;2023-01-24T09:04:32;4.60;99.90
17200;DHT22;8716;52.268;20.968;2023-01-24T09:07:02;4.60;99.90
17200;DHT22;8716;52.268;20.968;2023-01-24T09:09:30;4.60;99.90
17200;DHT22;8716;52.268;20.968;2023-01-24T09:12:01;4.60;99.90
17200;DHT22;8716;52.268;20.968;2023-01-24T09:14:30;4.70;99.90
17200;DHT22;8716;52.268;20.968;2023-01-24T09:16:58;4.70;99.90
17200;DHT22;8716;52.268;20.968;2023-01-24T09:19:26;4.70;99.90
17200;DHT22;8716;52.268;20.968;2023-01-24T09:21:54;4.80;99.90
17200;DHT22;8716;52.268;20.968;2023-01-24T09:24:25;4.70;99.90
17200;DHT22;8716;52.268;20.968;2023-01-24T09:26:54;4.80;99.90
17200;DHT22;8716;52.268;20.968;2023-01-24T09:29:23;4.80;99.90
17200;DHT22;8716;52.268;20.968;2023-01-24T09:31:51;4.80;99.90
17200;DHT22;8716;52.268;20.968;2023-01-24T09:34:22;4.80;99.90
17200;DHT22;8716;52.268;20.968;2023-01-24T09:36:50;4.90;99.90
17200;DHT22;8716;52.268;20.968;2023-01-24T09:39:18;4.90;99.90
17200;DHT22;8716;52.268;20.968;2023-01-24T09:41:57;4.90;99.90
17200;DHT22;8716;52.268;20.968;2023-01-24T09:44:43;4.90;99.90
17200;DHT22;8716;52.268;20.968;2023-01-24T09:47:18;4.90;99.90
17200;DHT22;8716;52.268;20.968;2023-01-24T09:49:56;5.00;99.90
17200;DHT22;8716;52.268;20.968;2023-01-24T09:52:29;4.90;99.90
17200;DHT22;8716;52.268;20.968;2023-01-24T09:55:02;4.90;99.90
17200;DHT22;8716;52.268;20.968;2023-01-24T09:57:41;5.00;99.90
17200;DHT22;8716;52.268;20.968;2023-01-24T10:00:16;5.00;99.90
17200;DHT22;8716;52.268;20.968;2023-01-24T10:02:46;5.00;99.90
17200;DHT22;8716;52.268;20.968;2023-01-24T10:05:16;5.10;99.90
17200;DHT22;8716;52.268;20.968;2023-01-24T10:08:08;5.00;99.90
17200;DHT22;8716;52.268;20.968;2023-01-24T10:10:51;5.00;99.90
17200;DHT22;8716;52.268;20.968;2023-01-24T10:19:24;5.00;99.90
17200;DHT22;8716;52.268;20.968;2023-01-24T10:22:11;5.10;99.90
17200;DHT22;8716;52.268;20.968;2023-01-24T10:24:47;5.10;99.90
17200;DHT22;8716;52.268;20.968;2023-01-24T10:27:24;5.10;99.90
17200;DHT22;8716;52.268;20.968;2023-01-24T10:29:57;5.10;99.90
17200;DHT22;8716;52.268;20.968;2023-01-24T10:32:30;5.20;99.90
17200;DHT22;8716;52.268;20.968;2023-01-24T10:35:02;5.20;99.90
17200;DHT22;8716;52.268;20.968;2023-01-24T10:37:42;5.20;99.90
17200;DHT22;8716;52.268;20.968;2023-01-24T10:40:11;5.20;99.90
17200;DHT22;8716;52.268;20.968;2023-01-24T10:42:40;5.20;99.90
17200;DHT22;8716;52.268;20.968;2023-01-24T10:45:35;5.20;99.90
17200;DHT22;8716;52.268;20.968;2023-01-24T10:48:13;5.20;99.90
17200;DHT22;8716;52.268;20.968;2023-01-24T10:50:46;5.20;99.90
17200;DHT22;8716;52.268;20.968;2023-01-24T10:53:22;5.20;99.90
17200;DHT22;8716;52.268;20.968;2023-01-24T10:56:01;5.20;99.90
17200;DHT22;8716;52.268;20.968;2023-01-24T10:58:34;5.20;99.90
17200;DHT22;8716;52.268;20.968;2023-01-24T11:01:16;5.30;99.90
17200;DHT22;8716;52.268;20.968;2023-01-24T11:03:47;5.30;99.90
17200;DHT22;8716;52.268;20.968;2023-01-24T11:06:31;5.30;99.90
17200;DHT22;8716;52.268;20.968;2023-01-24T11:09:09;5.30;99.90
17200;DHT22;8716;52.268;20.968;2023-01-24T11:11:42;5.30;99.90
17200;DHT22;8716;52.268;20.968;2023-01-24T11:14:14;5.40;99.90
17200;DHT22;8716;52.268;20.968;2023-01-24T11:16:47;5.50;99.90
17200;DHT22;8716;52.268;20.968;2023-01-24T11:19:28;5.50;99.90
17200;DHT22;8716;52.268;20.968;2023-01-24T11:21:58;5.50;99.90
17200;DHT22;8716;52.268;20.968;2023-01-24T11:24:28;5.50;99.90
17200;DHT22;8716;52.268;20.968;2023-01-24T11:27:01;5.50;99.90
17200;DHT22;8716;52.268;20.968;2023-01-24T11:29:30;5.50;99.90
17200;DHT22;8716;52.268;20.968;2023-01-24T11:32:16;5.50;99.90
17200;DHT22;8716;52.268;20.968;2023-01-24T11:34:53;5.50;99.90
17200;DHT22;8716;52.268;20.968;2023-01-24T11:38:08;5.40;99.90
17200;DHT22;8716;52.268;20.968;2023-01-24T11:40:45;5.40;99.90
17200;DHT22;8716;52.268;20.968;2023-01-24T11:43:24;5.40;99.90
17200;DHT22;8716;52.268;20.968;2023-01-24T11:46:10;5.40;99.90
17200;DHT22;8716;52.268;20.968;2023-01-24T11:48:51;5.40;99.90
17200;DHT22;8716;52.268;20.968;2023-01-24T11:51:29;5.40;99.90
17200;DHT22;8716;52.268;20.968;2023-01-24T11:54:28;5.40;99.90
17200;DHT22;8716;52.268;20.968;2023-01-24T11:57:02;5.50;99.90
17200;DHT22;8716;52.268;20.968;2023-01-24T11:59:44;5.40;99.90
17200;DHT22;8716;52.268;20.968;2023-01-24T12:02:28;5.40;99.90
17200;DHT22;8716;52.268;20.968;2023-01-24T12:05:12;5.40;99.90
17200;DHT22;8716;52.268;20.968;2023-01-24T12:07:52;5.40;99.90
17200;DHT22;8716;52.268;20.968;2023-01-24T12:10:30;5.40;99.90
17200;DHT22;8716;52.268;20.968;2023-01-24T12:13:05;5.40;99.90
17200;DHT22;8716;52.268;20.968;2023-01-24T12:15:39;5.30;99.90
17200;DHT22;8716;52.268;20.968;2023-01-24T12:18:43;5.30;99.90
17200;DHT22;8716;52.268;20.968;2023-01-24T12:21:15;5.40;99.90
17200;DHT22;8716;52.268;20.968;2023-01-24T12:23:49;5.40;99.90
17200;DHT22;8716;52.268;20.968;2023-01-24T12:26:22;5.40;99.90
17200;DHT22;8716;52.268;20.968;2023-01-24T12:29:00;5.40;99.90
17200;DHT22;8716;52.268;20.968;2023-01-24T12:31:37;5.30;99.90
17200;DHT22;8716;52.268;20.968;2023-01-24T12:34:18;5.30;99.90
17200;DHT22;8716;52.268;20.968;2023-01-24T12:36:56;5.30;99.90
17200;DHT22;8716;52.268;20.968;2023-01-24T12:39:29;5.30;99.90
17200;DHT22;8716;52.268;20.968;2023-01-24T12:42:04;5.30;99.90
17200;DHT22;8716;52.268;20.968;2023-01-24T12:44:37;5.30;99.90
17200;DHT22;8716;52.268;20.968;2023-01-24T12:47:22;5.30;99.90
17200;DHT22;8716;52.268;20.968;2023-01-24T12:50:12;5.30;99.90
17200;DHT22;8716;52.268;20.968;2023-01-24T12:52:47;5.20;99.90
17200;DHT22;8716;52.268;20.968;2023-01-24T12:55:22;5.30;99.90
17200;DHT22;8716;52.268;20.968;2023-01-24T12:58:00;5.30;99.90
17200;DHT22;8716;52.268;20.968;2023-01-24T13:00:32;5.20;99.90
17200;DHT22;8716;52.268;20.968;2023-01-24T13:03:22;5.20;99.90
17200;DHT22;8716;52.268;20.968;2023-01-24T13:06:00;5.20;99.90
17200;DHT22;8716;52.268;20.968;2023-01-24T13:08:39;5.20;99.90
17200;DHT22;8716;52.268;20.968;2023-01-24T13:11:19;5.20;99.90
17200;DHT22;8716;52.268;20.968;2023-01-24T13:14:00;5.30;99.90
17200;DHT22;8716;52.268;20.968;2023-01-24T13:19:44;5.20;99.90
17200;DHT22;8716;52.268;20.968;2023-01-24T13:22:31;5.30;99.90
17200;DHT22;8716;52.268;20.968;2023-01-24T13:25:30;5.20;99.90
17200;DHT22;8716;52.268;20.968;2023-01-24T13:28:06;5.30;99.90
17200;DHT22;8716;52.268;20.968;2023-01-24T13:30:43;5.20;99.90
17200;DHT22;8716;52.268;20.968;2023-01-24T13:33:17;5.20;99.90
17200;DHT22;8716;52.268;20.968;2023-01-24T13:35:48;5.30;99.90
17200;DHT22;8716;52.268;20.968;2023-01-24T13:38:22;5.20;99.90
17200;DHT22;8716;52.268;20.968;2023-01-24T13:41:01;5.20;99.90
17200;DHT22;8716;52.268;20.968;2023-01-24T13:43:58;5.20;99.90
17200;DHT22;8716;52.268;20.968;2023-01-24T13:46:58;5.30;99.90
17200;DHT22;8716;52.268;20.968;2023-01-24T13:49:44;5.30;99.90
17200;DHT22;8716;52.268;20.968;2023-01-24T13:52:35;5.30;99.90
17200;DHT22;8716;52.268;20.968;2023-01-24T13:55:08;5.30;99.90
17200;DHT22;8716;52.268;20.968;2023-01-24T13:58:18;5.30;99.90
17200;DHT22;8716;52.268;20.968;2023-01-24T14:00:50;5.20;99.90
17200;DHT22;8716;52.268;20.968;2023-01-24T14:03:23;5.20;99.90
17200;DHT22;8716;52.268;20.968;2023-01-24T14:05:55;5.20;99.90
17200;DHT22;8716;52.268;20.968;2023-01-24T14:08:43;5.20;99.90
17200;DHT22;8716;52.268;20.968;2023-01-24T14:11:37;5.10;99.90
17200;DHT22;8716;52.268;20.968;2023-01-24T14:14:35;5.00;99.90
17200;DHT22;8716;52.268;20.968;2023-01-24T14:17:26;5.00;99.90
17200;DHT22;8716;52.268;20.968;2023-01-24T14:19:56;5.10;99.90
17200;DHT22;8716;52.268;20.968;2023-01-24T14:22:38;5.00;99.90
17200;DHT22;8716;52.268;20.968;2023-01-24T14:25:34;5.00;99.90
17200;DHT22;8716;52.268;20.968;2023-01-24T14:28:11;5.00;99.90
17200;DHT22;8716;52.268;20.968;2023-01-24T14:30:45;5.00;99.90
17200;DHT22;8716;52.268;20.968;2023-01-24T14:33:26;5.00;99.90
17200;DHT22;8716;52.268;20.968;2023-01-24T14:36:01;5.00;99.90
17200;DHT22;8716;52.268;20.968;2023-01-24T14:38:32;4.90;99.90
17200;DHT22;8716;52.268;20.968;2023-01-24T14:41:00;5.00;99.90
17200;DHT22;8716;52.268;20.968;2023-01-24T14:43:34;5.00;99.90
17200;DHT22;8716;52.268;20.968;2023-01-24T14:46:20;4.90;99.90
17200;DHT22;8716;52.268;20.968;2023-01-24T14:48:49;4.90;99.90
17200;DHT22;8716;52.268;20.968;2023-01-24T14:51:22;4.80;99.90
17200;DHT22;8716;52.268;20.968;2023-01-24T14:53:53;4.80;99.90
17200;DHT22;8716;52.268;20.968;2023-01-24T14:56:21;4.80;99.90
17200;DHT22;8716;52.268;20.968;2023-01-24T14:58:50;4.80;99.90
17200;DHT22;8716;52.268;20.968;2023-01-24T15:01:28;4.70;99.90
17200;DHT22;8716;52.268;20.968;2023-01-24T15:03:58;4.70;99.90
17200;DHT22;8716;52.268;20.968;2023-01-24T15:06:28;4.70;99.90
17200;DHT22;8716;52.268;20.968;2023-01-24T15:09:00;4.70;99.90
17200;DHT22;8716;52.268;20.968;2023-01-24T15:11:30;4.70;99.90
17200;DHT22;8716;52.268;20.968;2023-01-24T15:14:03;4.70;99.90
17200;DHT22;8716;52.268;20.968;2023-01-24T15:16:37;4.70;99.90
17200;DHT22;8716;52.268;20.968;2023-01-24T15:19:16;4.70;99.90
17200;DHT22;8716;52.268;20.968;2023-01-24T15:21:48;4.70;99.90
17200;DHT22;8716;52.268;20.968;2023-01-24T15:24:20;4.70;99.90
17200;DHT22;8716;52.268;20.968;2023-01-24T15:26:53;4.70;99.90
17200;DHT22;8716;52.268;20.968;2023-01-24T15:29:49;4.70;99.90
17200;DHT22;8716;52.268;20.968;2023-01-24T15:32:30;4.70;99.90
17200;DHT22;8716;52.268;20.968;2023-01-24T15:35:39;4.70;99.90
17200;DHT22;8716;52.268;20.968;2023-01-24T15:38:33;4.70;99.90
17200;DHT22;8716;52.268;20.968;2023-01-24T15:41:18;4.60;99.90
17200;DHT22;8716;52.268;20.968;2023-01-24T15:43:50;4.70;99.90
17200;DHT22;8716;52.268;20.968;2023-01-24T15:46:27;4.60;99.90
17200;DHT22;8716;52.268;20.968;2023-01-24T15:49:27;4.60;99.90
17200;DHT22;8716;52.268;20.968;2023-01-24T15:52:25;4.60;99.90
17200;DHT22;8716;52.268;20.968;2023-01-24T15:54:55;4.60;99.90
17200;DHT22;8716;52.268;20.968;2023-01-24T15:57:27;4.60;99.90
17200;DHT22;8716;52.268;20.968;2023-01-24T16:00:00;4.60;99.90
17200;DHT22;8716;52.268;20.968;2023-01-24T16:02:35;4.50;99.90
17200;DHT22;8716;52.268;20.968;2023-01-24T16:05:11;4.50;99.90
17200;DHT22;8716;52.268;20.968;2023-01-24T16:07:40;4.50;99.90
17200;DHT22;8716;52.268;20.968;2023-01-24T16:10:11;4.50;99.90
17200;DHT22;8716;52.268;20.968;2023-01-24T16:12:40;4.50;99.90
17200;DHT22;8716;52.268;20.968;2023-01-24T16:15:15;4.50;99.90
17200;DHT22;8716;52.268;20.968;2023-01-24T16:17:47;4.50;99.90
17200;DHT22;8716;52.268;20.968;2023-01-24T16:20:19;4.50;99.90
17200;DHT22;8716;52.268;20.968;2023-01-24T16:22:47;4.50;99.90
17200;DHT22;8716;52.268;20.968;2023-01-24T16:25:16;4.40;99.90
17200;DHT22;8716;52.268;20.968;2023-01-24T16:27:49;4.40;99.90
17200;DHT22;8716;52.268;20.968;2023-01-24T16:30:19;4.40;99.90
17200;DHT22;8716;52.268;20.968;2023-01-24T16:32:49;4.40;99.90
17200;DHT22;8716;52.268;20.968;2023-01-24T16:35:18;4.40;99.90
17200;DHT22;8716;52.268;20.968;2023-01-24T16:37:49;4.40;99.90
17200;DHT22;8716;52.268;20.968;2023-01-24T16:40:18;4.30;99.90